Austin, Texas
Traffic Map
Current Weather Conditions
Austin, Texas
Overcast Thunderstorm
Overcast
17°
Feels Like: 17°
Wind Chill: 17° Ceiling: 3000
Heat Index: 17° Visibility: 1.2mi
Dew Point: 16° Wind: 12mph
Humidity: 93% Direction: 360° (N)
Pressure: 29.77in Gusts: 20mph
Raw Report DataKATT 230151Z AUTO 36010G17KT 1 1/4SM +TSRA BR SCT007 OVC030 17/16 A2977 RMK AO2 RAE06B27 TSB41 SLP074 P0029 T01670156
Traffic Incident Summary
Active as of:
Severity:
Category:
InformationThere was an issue retrieving the traffic information for this location. Please try a different location or try again shortly.
Advertisements
Track Severe Weather on mobile